sensor_id;sensor_type;location;lat;lon;timestamp;temperature;humidity
16172;DHT22;8192;53.596;10.166;2024-01-15T00:00:17;1.70;99.90
16172;DHT22;8192;53.596;10.166;2024-01-15T00:02:44;1.70;99.90
16172;DHT22;8192;53.596;10.166;2024-01-15T00:05:11;1.80;99.90
16172;DHT22;8192;53.596;10.166;2024-01-15T00:07:38;1.80;99.90
16172;DHT22;8192;53.596;10.166;2024-01-15T00:10:08;1.70;99.90
16172;DHT22;8192;53.596;10.166;2024-01-15T00:12:35;1.70;99.90
16172;DHT22;8192;53.596;10.166;2024-01-15T00:15:03;1.80;99.90
16172;DHT22;8192;53.596;10.166;2024-01-15T00:17:30;1.80;99.90
16172;DHT22;8192;53.596;10.166;2024-01-15T00:19:57;1.80;99.90
16172;DHT22;8192;53.596;10.166;2024-01-15T00:22:25;1.80;99.90
16172;DHT22;8192;53.596;10.166;2024-01-15T00:24:52;1.80;99.90
16172;DHT22;8192;53.596;10.166;2024-01-15T00:27:21;1.80;99.90
16172;DHT22;8192;53.596;10.166;2024-01-15T00:29:49;1.70;99.90
16172;DHT22;8192;53.596;10.166;2024-01-15T00:32:17;1.70;99.90
16172;DHT22;8192;53.596;10.166;2024-01-15T00:34:43;1.70;99.90
16172;DHT22;8192;53.596;10.166;2024-01-15T00:37:10;1.70;99.90
16172;DHT22;8192;53.596;10.166;2024-01-15T00:39:37;1.70;99.90
16172;DHT22;8192;53.596;10.166;2024-01-15T00:42:05;1.70;99.90
16172;DHT22;8192;53.596;10.166;2024-01-15T00:44:33;1.80;99.90
16172;DHT22;8192;53.596;10.166;2024-01-15T00:47:00;1.70;99.90
16172;DHT22;8192;53.596;10.166;2024-01-15T00:49:28;1.60;99.90
16172;DHT22;8192;53.596;10.166;2024-01-15T00:51:55;1.60;99.90
16172;DHT22;8192;53.596;10.166;2024-01-15T00:54:22;1.60;99.90
16172;DHT22;8192;53.596;10.166;2024-01-15T00:56:48;1.60;99.90
16172;DHT22;8192;53.596;10.166;2024-01-15T00:59:15;1.60;99.90
16172;DHT22;8192;53.596;10.166;2024-01-15T01:01:44;1.60;99.90
16172;DHT22;8192;53.596;10.166;2024-01-15T01:04:11;1.70;99.90
16172;DHT22;8192;53.596;10.166;2024-01-15T01:06:38;1.70;99.90
16172;DHT22;8192;53.596;10.166;2024-01-15T01:09:06;1.70;99.90
16172;DHT22;8192;53.596;10.166;2024-01-15T01:11:31;1.60;99.90
16172;DHT22;8192;53.596;10.166;2024-01-15T01:13:58;1.60;99.90
16172;DHT22;8192;53.596;10.166;2024-01-15T01:16:26;1.60;99.90
16172;DHT22;8192;53.596;10.166;2024-01-15T01:18:54;1.60;99.90
16172;DHT22;8192;53.596;10.166;2024-01-15T01:21:21;1.60;99.90
16172;DHT22;8192;53.596;10.166;2024-01-15T01:23:48;1.60;99.90
16172;DHT22;8192;53.596;10.166;2024-01-15T01:26:15;1.60;99.90
16172;DHT22;8192;53.596;10.166;2024-01-15T01:28:43;1.60;99.90
16172;DHT22;8192;53.596;10.166;2024-01-15T01:31:10;1.70;99.90
16172;DHT22;8192;53.596;10.166;2024-01-15T01:33:38;1.70;99.90
16172;DHT22;8192;53.596;10.166;2024-01-15T01:36:09;1.80;99.90
16172;DHT22;8192;53.596;10.166;2024-01-15T01:38:36;1.80;99.90
16172;DHT22;8192;53.596;10.166;2024-01-15T01:41:03;1.90;99.90
16172;DHT22;8192;53.596;10.166;2024-01-15T01:43:30;1.70;99.90
16172;DHT22;8192;53.596;10.166;2024-01-15T01:45:57;1.60;99.90
16172;DHT22;8192;53.596;10.166;2024-01-15T01:48:25;1.60;99.90
16172;DHT22;8192;53.596;10.166;2024-01-15T01:50:53;1.70;99.90
16172;DHT22;8192;53.596;10.166;2024-01-15T01:53:22;1.70;99.90
16172;DHT22;8192;53.596;10.166;2024-01-15T01:55:49;1.70;99.90
16172;DHT22;8192;53.596;10.166;2024-01-15T01:58:17;1.80;99.90
16172;DHT22;8192;53.596;10.166;2024-01-15T02:00:43;2.00;99.90
16172;DHT22;8192;53.596;10.166;2024-01-15T02:03:10;2.00;99.90
16172;DHT22;8192;53.596;10.166;2024-01-15T02:05:39;2.00;99.90
16172;DHT22;8192;53.596;10.166;2024-01-15T02:08:07;2.00;99.90
16172;DHT22;8192;53.596;10.166;2024-01-15T02:10:35;2.00;99.90
16172;DHT22;8192;53.596;10.166;2024-01-15T02:13:02;2.00;99.90
16172;DHT22;8192;53.596;10.166;2024-01-15T02:15:30;2.00;99.90
16172;DHT22;8192;53.596;10.166;2024-01-15T02:17:59;2.00;99.90
16172;DHT22;8192;53.596;10.166;2024-01-15T02:20:27;1.90;99.90
16172;DHT22;8192;53.596;10.166;2024-01-15T02:23:01;1.80;99.90
16172;DHT22;8192;53.596;10.166;2024-01-15T02:25:28;1.90;99.90
16172;DHT22;8192;53.596;10.166;2024-01-15T02:27:55;1.80;99.90
16172;DHT22;8192;53.596;10.166;2024-01-15T02:30:23;1.80;99.90
16172;DHT22;8192;53.596;10.166;2024-01-15T02:32:50;1.80;99.90
16172;DHT22;8192;53.596;10.166;2024-01-15T02:35:17;1.70;99.90
16172;DHT22;8192;53.596;10.166;2024-01-15T02:37:44;1.80;99.90
16172;DHT22;8192;53.596;10.166;2024-01-15T02:40:14;1.70;99.90
16172;DHT22;8192;53.596;10.166;2024-01-15T02:42:41;1.70;99.90
16172;DHT22;8192;53.596;10.166;2024-01-15T02:45:08;1.70;99.90
16172;DHT22;8192;53.596;10.166;2024-01-15T02:47:35;1.70;99.90
16172;DHT22;8192;53.596;10.166;2024-01-15T02:50:03;1.70;99.90
16172;DHT22;8192;53.596;10.166;2024-01-15T02:52:30;1.70;99.90
16172;DHT22;8192;53.596;10.166;2024-01-15T02:54:57;1.80;99.90
16172;DHT22;8192;53.596;10.166;2024-01-15T02:57:25;1.80;99.90
16172;DHT22;8192;53.596;10.166;2024-01-15T02:59:52;1.90;99.90
16172;DHT22;8192;53.596;10.166;2024-01-15T03:02:19;2.00;99.90
16172;DHT22;8192;53.596;10.166;2024-01-15T03:04:46;2.00;99.90
16172;DHT22;8192;53.596;10.166;2024-01-15T03:07:13;2.00;99.90
16172;DHT22;8192;53.596;10.166;2024-01-15T03:09:40;2.00;99.90
16172;DHT22;8192;53.596;10.166;2024-01-15T03:12:07;1.90;99.90
16172;DHT22;8192;53.596;10.166;2024-01-15T03:14:36;1.90;99.90
16172;DHT22;8192;53.596;10.166;2024-01-15T03:17:04;2.00;99.90
16172;DHT22;8192;53.596;10.166;2024-01-15T03:19:30;2.00;99.90
16172;DHT22;8192;53.596;10.166;2024-01-15T03:21:57;2.10;99.90
16172;DHT22;8192;53.596;10.166;2024-01-15T03:24:26;2.20;99.90
16172;DHT22;8192;53.596;10.166;2024-01-15T03:26:53;2.10;99.90
16172;DHT22;8192;53.596;10.166;2024-01-15T03:29:20;2.10;99.90
16172;DHT22;8192;53.596;10.166;2024-01-15T03:31:49;2.00;99.90
16172;DHT22;8192;53.596;10.166;2024-01-15T03:34:16;1.90;99.90
16172;DHT22;8192;53.596;10.166;2024-01-15T03:36:42;1.90;99.90
16172;DHT22;8192;53.596;10.166;2024-01-15T03:39:09;1.90;99.90
16172;DHT22;8192;53.596;10.166;2024-01-15T03:41:36;1.80;99.90
16172;DHT22;8192;53.596;10.166;2024-01-15T03:44:03;1.90;99.90
16172;DHT22;8192;53.596;10.166;2024-01-15T03:46:30;1.90;99.90
16172;DHT22;8192;53.596;10.166;2024-01-15T03:48:59;1.90;99.90
16172;DHT22;8192;53.596;10.166;2024-01-15T03:51:25;1.80;99.90
16172;DHT22;8192;53.596;10.166;2024-01-15T03:53:52;1.80;99.90
16172;DHT22;8192;53.596;10.166;2024-01-15T03:56:19;1.90;99.90
16172;DHT22;8192;53.596;10.166;2024-01-15T03:58:46;2.00;99.90
16172;DHT22;8192;53.596;10.166;2024-01-15T04:01:13;1.90;99.90
16172;DHT22;8192;53.596;10.166;2024-01-15T04:03:40;2.00;99.90
16172;DHT22;8192;53.596;10.166;2024-01-15T04:06:08;2.00;99.90
16172;DHT22;8192;53.596;10.166;2024-01-15T04:08:35;2.00;99.90
16172;DHT22;8192;53.596;10.166;2024-01-15T04:11:02;2.10;99.90
16172;DHT22;8192;53.596;10.166;2024-01-15T04:13:32;2.00;99.90
16172;DHT22;8192;53.596;10.166;2024-01-15T04:16:00;2.10;99.90
16172;DHT22;8192;53.596;10.166;2024-01-15T04:18:27;2.10;99.90
16172;DHT22;8192;53.596;10.166;2024-01-15T04:20:54;2.10;99.90
16172;DHT22;8192;53.596;10.166;2024-01-15T04:23:22;2.20;99.90
16172;DHT22;8192;53.596;10.166;2024-01-15T04:25:49;2.10;99.90
16172;DHT22;8192;53.596;10.166;2024-01-15T04:28:16;2.10;99.90
16172;DHT22;8192;53.596;10.166;2024-01-15T04:30:43;2.10;99.90
16172;DHT22;8192;53.596;10.166;2024-01-15T04:33:09;2.20;99.90
16172;DHT22;8192;53.596;10.166;2024-01-15T04:35:37;2.20;99.90
16172;DHT22;8192;53.596;10.166;2024-01-15T04:38:06;2.20;99.90
16172;DHT22;8192;53.596;10.166;2024-01-15T04:40:34;2.30;99.90
16172;DHT22;8192;53.596;10.166;2024-01-15T04:43:01;2.30;99.90
16172;DHT22;8192;53.596;10.166;2024-01-15T04:45:28;2.20;99.90
16172;DHT22;8192;53.596;10.166;2024-01-15T04:47:55;2.20;99.90
16172;DHT22;8192;53.596;10.166;2024-01-15T04:50:23;2.20;99.90
16172;DHT22;8192;53.596;10.166;2024-01-15T04:52:50;2.20;99.90
16172;DHT22;8192;53.596;10.166;2024-01-15T04:55:17;2.30;99.90
16172;DHT22;8192;53.596;10.166;2024-01-15T04:57:46;2.20;99.90
16172;DHT22;8192;53.596;10.166;2024-01-15T05:00:14;2.20;99.90
16172;DHT22;8192;53.596;10.166;2024-01-15T05:02:41;2.20;99.90
16172;DHT22;8192;53.596;10.166;2024-01-15T05:05:08;2.20;99.90
16172;DHT22;8192;53.596;10.166;2024-01-15T05:07:35;2.20;99.90
16172;DHT22;8192;53.596;10.166;2024-01-15T05:10:02;2.30;99.90
16172;DHT22;8192;53.596;10.166;2024-01-15T05:12:29;2.20;99.90
16172;DHT22;8192;53.596;10.166;2024-01-15T05:14:58;2.20;99.90
16172;DHT22;8192;53.596;10.166;2024-01-15T05:17:24;2.20;99.90
16172;DHT22;8192;53.596;10.166;2024-01-15T05:19:51;2.20;99.90
16172;DHT22;8192;53.596;10.166;2024-01-15T05:22:18;2.30;99.90
16172;DHT22;8192;53.596;10.166;2024-01-15T05:24:46;2.20;99.90
16172;DHT22;8192;53.596;10.166;2024-01-15T05:27:13;2.10;99.90
16172;DHT22;8192;53.596;10.166;2024-01-15T05:29:40;2.20;99.90
16172;DHT22;8192;53.596;10.166;2024-01-15T05:32:08;2.20;99.90
16172;DHT22;8192;53.596;10.166;2024-01-15T05:34:35;2.10;99.90
16172;DHT22;8192;53.596;10.166;2024-01-15T05:37:02;2.10;99.90
16172;DHT22;8192;53.596;10.166;2024-01-15T05:39:29;2.00;99.90
16172;DHT22;8192;53.596;10.166;2024-01-15T05:41:57;2.00;99.90
16172;DHT22;8192;53.596;10.166;2024-01-15T05:44:24;2.00;99.90
16172;DHT22;8192;53.596;10.166;2024-01-15T05:46:51;2.10;99.90
16172;DHT22;8192;53.596;10.166;2024-01-15T05:49:19;2.00;99.90
16172;DHT22;8192;53.596;10.166;2024-01-15T05:51:46;2.00;99.90
16172;DHT22;8192;53.596;10.166;2024-01-15T05:54:13;2.00;99.90
16172;DHT22;8192;53.596;10.166;2024-01-15T05:56:40;2.00;99.90
16172;DHT22;8192;53.596;10.166;2024-01-15T05:59:07;1.90;99.90
16172;DHT22;8192;53.596;10.166;2024-01-15T06:01:34;1.80;99.90
16172;DHT22;8192;53.596;10.166;2024-01-15T06:04:01;1.80;99.90
16172;DHT22;8192;53.596;10.166;2024-01-15T06:06:30;1.80;99.90
16172;DHT22;8192;53.596;10.166;2024-01-15T06:08:57;1.80;99.90
16172;DHT22;8192;53.596;10.166;2024-01-15T06:11:30;1.80;99.90
16172;DHT22;8192;53.596;10.166;2024-01-15T06:13:57;1.90;99.90
16172;DHT22;8192;53.596;10.166;2024-01-15T06:16:26;1.90;99.90
16172;DHT22;8192;53.596;10.166;2024-01-15T06:18:53;2.00;99.90
16172;DHT22;8192;53.596;10.166;2024-01-15T06:21:20;2.00;99.90
16172;DHT22;8192;53.596;10.166;2024-01-15T06:23:48;1.90;99.90
16172;DHT22;8192;53.596;10.166;2024-01-15T06:26:15;1.90;99.90
16172;DHT22;8192;53.596;10.166;2024-01-15T06:28:42;1.90;99.90
16172;DHT22;8192;53.596;10.166;2024-01-15T06:31:10;2.00;99.90
16172;DHT22;8192;53.596;10.166;2024-01-15T06:33:37;1.90;99.90
16172;DHT22;8192;53.596;10.166;2024-01-15T06:36:05;2.00;99.90
16172;DHT22;8192;53.596;10.166;2024-01-15T06:38:32;2.00;99.90
16172;DHT22;8192;53.596;10.166;2024-01-15T06:41:03;2.00;99.90
16172;DHT22;8192;53.596;10.166;2024-01-15T06:43:30;2.00;99.90
16172;DHT22;8192;53.596;10.166;2024-01-15T06:45:56;2.10;99.90
16172;DHT22;8192;53.596;10.166;2024-01-15T06:48:27;2.10;99.90
16172;DHT22;8192;53.596;10.166;2024-01-15T06:50:54;2.00;99.90
16172;DHT22;8192;53.596;10.166;2024-01-15T06:53:21;2.00;99.90
16172;DHT22;8192;53.596;10.166;2024-01-15T06:55:48;2.00;99.90
16172;DHT22;8192;53.596;10.166;2024-01-15T06:58:18;2.00;99.90
16172;DHT22;8192;53.596;10.166;2024-01-15T07:00:45;2.10;99.90
16172;DHT22;8192;53.596;10.166;2024-01-15T07:03:11;2.10;99.90
16172;DHT22;8192;53.596;10.166;2024-01-15T07:05:38;2.20;99.90
16172;DHT22;8192;53.596;10.166;2024-01-15T07:08:05;2.10;99.90
16172;DHT22;8192;53.596;10.166;2024-01-15T07:10:32;2.10;99.90
16172;DHT22;8192;53.596;10.166;2024-01-15T07:13:00;2.10;99.90
16172;DHT22;8192;53.596;10.166;2024-01-15T07:15:28;2.10;99.90
16172;DHT22;8192;53.596;10.166;2024-01-15T07:17:55;2.10;99.90
16172;DHT22;8192;53.596;10.166;2024-01-15T07:20:22;2.10;99.90
16172;DHT22;8192;53.596;10.166;2024-01-15T07:22:49;2.10;99.90
16172;DHT22;8192;53.596;10.166;2024-01-15T07:25:16;2.20;99.90
16172;DHT22;8192;53.596;10.166;2024-01-15T07:27:43;2.20;99.90
16172;DHT22;8192;53.596;10.166;2024-01-15T07:30:12;2.20;99.90
16172;DHT22;8192;53.596;10.166;2024-01-15T07:32:41;2.30;99.90
16172;DHT22;8192;53.596;10.166;2024-01-15T07:35:08;2.30;99.90
16172;DHT22;8192;53.596;10.166;2024-01-15T07:37:35;2.40;99.90
16172;DHT22;8192;53.596;10.166;2024-01-15T07:40:03;2.50;99.90
16172;DHT22;8192;53.596;10.166;2024-01-15T07:42:32;2.40;99.90
16172;DHT22;8192;53.596;10.166;2024-01-15T07:44:59;2.50;99.90
16172;DHT22;8192;53.596;10.166;2024-01-15T07:47:26;2.50;99.90
16172;DHT22;8192;53.596;10.166;2024-01-15T07:49:54;2.50;99.90
16172;DHT22;8192;53.596;10.166;2024-01-15T07:52:22;2.50;99.90
16172;DHT22;8192;53.596;10.166;2024-01-15T07:54:49;2.50;99.90
16172;DHT22;8192;53.596;10.166;2024-01-15T07:57:16;2.50;99.90
16172;DHT22;8192;53.596;10.166;2024-01-15T07:59:42;2.50;99.90
16172;DHT22;8192;53.596;10.166;2024-01-15T08:02:09;2.50;99.90
16172;DHT22;8192;53.596;10.166;2024-01-15T08:04:37;2.50;99.90
16172;DHT22;8192;53.596;10.166;2024-01-15T08:07:05;2.50;99.90
16172;DHT22;8192;53.596;10.166;2024-01-15T08:09:33;2.50;99.90
16172;DHT22;8192;53.596;10.166;2024-01-15T08:12:00;2.50;99.90
16172;DHT22;8192;53.596;10.166;2024-01-15T08:14:46;2.60;99.90
16172;DHT22;8192;53.596;10.166;2024-01-15T08:17:13;2.60;99.90
16172;DHT22;8192;53.596;10.166;2024-01-15T08:19:42;2.60;99.90
16172;DHT22;8192;53.596;10.166;2024-01-15T08:22:10;2.60;99.90
16172;DHT22;8192;53.596;10.166;2024-01-15T08:24:37;2.60;99.90
16172;DHT22;8192;53.596;10.166;2024-01-15T08:27:04;2.60;99.90
16172;DHT22;8192;53.596;10.166;2024-01-15T08:29:31;2.60;99.90
16172;DHT22;8192;53.596;10.166;2024-01-15T08:32:00;2.60;99.90
16172;DHT22;8192;53.596;10.166;2024-01-15T08:34:27;2.60;99.90
16172;DHT22;8192;53.596;10.166;2024-01-15T08:36:54;2.60;99.90
16172;DHT22;8192;53.596;10.166;2024-01-15T08:39:22;2.60;99.90
16172;DHT22;8192;53.596;10.166;2024-01-15T08:41:49;2.60;99.90
16172;DHT22;8192;53.596;10.166;2024-01-15T08:44:16;2.60;99.90
16172;DHT22;8192;53.596;10.166;2024-01-15T08:46:43;2.70;99.90
16172;DHT22;8192;53.596;10.166;2024-01-15T08:49:10;2.70;99.90
16172;DHT22;8192;53.596;10.166;2024-01-15T08:51:38;2.70;99.90
16172;DHT22;8192;53.596;10.166;2024-01-15T08:54:05;2.80;99.90
16172;DHT22;8192;53.596;10.166;2024-01-15T08:56:35;2.80;99.90
16172;DHT22;8192;53.596;10.166;2024-01-15T08:59:02;2.90;99.90
16172;DHT22;8192;53.596;10.166;2024-01-15T09:01:29;2.70;99.90
16172;DHT22;8192;53.596;10.166;2024-01-15T09:04:01;2.70;99.90
16172;DHT22;8192;53.596;10.166;2024-01-15T09:06:28;2.50;99.90
16172;DHT22;8192;53.596;10.166;2024-01-15T09:08:55;2.50;99.90
16172;DHT22;8192;53.596;10.166;2024-01-15T09:11:22;2.30;99.90
16172;DHT22;8192;53.596;10.166;2024-01-15T09:13:50;2.10;99.90
16172;DHT22;8192;53.596;10.166;2024-01-15T09:16:18;2.00;99.90
16172;DHT22;8192;53.596;10.166;2024-01-15T09:18:45;1.80;99.90
16172;DHT22;8192;53.596;10.166;2024-01-15T09:21:12;1.80;99.90
16172;DHT22;8192;53.596;10.166;2024-01-15T09:23:40;1.70;99.90
16172;DHT22;8192;53.596;10.166;2024-01-15T09:26:08;1.60;99.90
16172;DHT22;8192;53.596;10.166;2024-01-15T09:28:35;1.50;99.90
16172;DHT22;8192;53.596;10.166;2024-01-15T09:31:08;1.60;99.90
16172;DHT22;8192;53.596;10.166;2024-01-15T09:33:35;1.60;99.90
16172;DHT22;8192;53.596;10.166;2024-01-15T09:36:09;1.70;99.90
16172;DHT22;8192;53.596;10.166;2024-01-15T09:38:36;1.70;99.90
16172;DHT22;8192;53.596;10.166;2024-01-15T09:41:03;1.70;99.90
16172;DHT22;8192;53.596;10.166;2024-01-15T09:43:31;1.80;99.90
16172;DHT22;8192;53.596;10.166;2024-01-15T09:45:58;1.80;99.90
16172;DHT22;8192;53.596;10.166;2024-01-15T09:48:27;1.80;99.90
16172;DHT22;8192;53.596;10.166;2024-01-15T09:50:54;1.80;99.90
16172;DHT22;8192;53.596;10.166;2024-01-15T09:53:21;1.90;99.90
16172;DHT22;8192;53.596;10.166;2024-01-15T09:55:50;1.80;99.90
16172;DHT22;8192;53.596;10.166;2024-01-15T09:58:17;1.80;99.90
16172;DHT22;8192;53.596;10.166;2024-01-15T10:00:44;1.80;99.90
16172;DHT22;8192;53.596;10.166;2024-01-15T10:03:11;1.80;99.90
16172;DHT22;8192;53.596;10.166;2024-01-15T10:05:40;1.80;99.90
16172;DHT22;8192;53.596;10.166;2024-01-15T10:08:07;1.80;99.90
16172;DHT22;8192;53.596;10.166;2024-01-15T10:10:36;1.80;99.90
16172;DHT22;8192;53.596;10.166;2024-01-15T10:13:04;1.70;99.90
16172;DHT22;8192;53.596;10.166;2024-01-15T10:15:34;1.70;99.90
16172;DHT22;8192;53.596;10.166;2024-01-15T10:18:02;1.70;99.90
16172;DHT22;8192;53.596;10.166;2024-01-15T10:20:32;1.70;99.90
16172;DHT22;8192;53.596;10.166;2024-01-15T10:23:00;1.70;99.90
16172;DHT22;8192;53.596;10.166;2024-01-15T10:25:27;1.70;99.90
16172;DHT22;8192;53.596;10.166;2024-01-15T10:28:03;1.70;99.90
16172;DHT22;8192;53.596;10.166;2024-01-15T10:30:32;1.70;99.90
16172;DHT22;8192;53.596;10.166;2024-01-15T10:32:59;1.70;99.90
16172;DHT22;8192;53.596;10.166;2024-01-15T10:38:50;1.80;99.90
16172;DHT22;8192;53.596;10.166;2024-01-15T10:41:17;1.90;99.90
16172;DHT22;8192;53.596;10.166;2024-01-15T10:43:44;2.00;99.90
16172;DHT22;8192;53.596;10.166;2024-01-15T10:46:11;2.10;99.90
16172;DHT22;8192;53.596;10.166;2024-01-15T10:48:39;2.10;99.90
16172;DHT22;8192;53.596;10.166;2024-01-15T10:51:06;2.10;99.90
16172;DHT22;8192;53.596;10.166;2024-01-15T10:53:38;2.10;99.90
16172;DHT22;8192;53.596;10.166;2024-01-15T10:56:07;2.10;99.90
16172;DHT22;8192;53.596;10.166;2024-01-15T10:58:37;2.00;99.90
16172;DHT22;8192;53.596;10.166;2024-01-15T11:01:06;2.10;99.90
16172;DHT22;8192;53.596;10.166;2024-01-15T11:03:33;2.10;99.90
16172;DHT22;8192;53.596;10.166;2024-01-15T11:06:00;2.10;99.90
16172;DHT22;8192;53.596;10.166;2024-01-15T11:08:29;2.10;99.90
16172;DHT22;8192;53.596;10.166;2024-01-15T11:10:57;2.00;99.90
16172;DHT22;8192;53.596;10.166;2024-01-15T11:13:40;2.10;99.90
16172;DHT22;8192;53.596;10.166;2024-01-15T11:16:08;2.10;99.90
16172;DHT22;8192;53.596;10.166;2024-01-15T11:18:37;2.00;99.90
16172;DHT22;8192;53.596;10.166;2024-01-15T11:21:25;2.10;99.90
16172;DHT22;8192;53.596;10.166;2024-01-15T11:23:54;2.00;99.90
16172;DHT22;8192;53.596;10.166;2024-01-15T11:26:30;2.10;99.90
16172;DHT22;8192;53.596;10.166;2024-01-15T11:28:59;2.10;99.90
16172;DHT22;8192;53.596;10.166;2024-01-15T11:31:29;2.10;99.90
16172;DHT22;8192;53.596;10.166;2024-01-15T11:33:55;2.20;99.90
16172;DHT22;8192;53.596;10.166;2024-01-15T11:39:41;2.20;99.90
16172;DHT22;8192;53.596;10.166;2024-01-15T11:42:10;2.20;99.90
16172;DHT22;8192;53.596;10.166;2024-01-15T11:44:39;2.10;99.90
16172;DHT22;8192;53.596;10.166;2024-01-15T11:47:07;2.10;99.90
16172;DHT22;8192;53.596;10.166;2024-01-15T11:50:00;2.20;99.90
16172;DHT22;8192;53.596;10.166;2024-01-15T11:52:32;2.40;99.90
16172;DHT22;8192;53.596;10.166;2024-01-15T11:55:05;2.60;99.90
16172;DHT22;8192;53.596;10.166;2024-01-15T11:57:40;2.70;99.90
16172;DHT22;8192;53.596;10.166;2024-01-15T12:00:11;2.70;99.90
16172;DHT22;8192;53.596;10.166;2024-01-15T12:02:40;2.50;99.90
16172;DHT22;8192;53.596;10.166;2024-01-15T12:05:08;2.60;99.90
16172;DHT22;8192;53.596;10.166;2024-01-15T12:07:35;2.60;99.90
16172;DHT22;8192;53.596;10.166;2024-01-15T12:10:02;2.60;99.90
16172;DHT22;8192;53.596;10.166;2024-01-15T12:12:39;2.60;99.90
16172;DHT22;8192;53.596;10.166;2024-01-15T12:15:07;2.70;99.90
16172;DHT22;8192;53.596;10.166;2024-01-15T12:17:36;2.80;99.90
16172;DHT22;8192;53.596;10.166;2024-01-15T12:20:03;2.90;99.90
16172;DHT22;8192;53.596;10.166;2024-01-15T12:22:31;2.80;99.90
16172;DHT22;8192;53.596;10.166;2024-01-15T12:25:00;2.90;99.90
16172;DHT22;8192;53.596;10.166;2024-01-15T12:27:26;2.90;99.90
16172;DHT22;8192;53.596;10.166;2024-01-15T12:29:53;2.80;99.90
16172;DHT22;8192;53.596;10.166;2024-01-15T12:32:20;2.90;99.90
16172;DHT22;8192;53.596;10.166;2024-01-15T12:34:50;2.80;99.90
16172;DHT22;8192;53.596;10.166;2024-01-15T12:37:18;2.60;99.90
16172;DHT22;8192;53.596;10.166;2024-01-15T12:39:45;2.60;99.90
16172;DHT22;8192;53.596;10.166;2024-01-15T12:42:14;2.60;99.90
16172;DHT22;8192;53.596;10.166;2024-01-15T12:44:42;2.70;99.90
16172;DHT22;8192;53.596;10.166;2024-01-15T12:47:09;2.70;99.90
16172;DHT22;8192;53.596;10.166;2024-01-15T12:49:36;2.70;99.90
16172;DHT22;8192;53.596;10.166;2024-01-15T12:52:09;2.60;99.90
16172;DHT22;8192;53.596;10.166;2024-01-15T12:54:36;2.60;99.90
16172;DHT22;8192;53.596;10.166;2024-01-15T12:57:03;2.50;99.90
16172;DHT22;8192;53.596;10.166;2024-01-15T12:59:30;2.50;99.90
16172;DHT22;8192;53.596;10.166;2024-01-15T13:01:57;2.50;99.90
16172;DHT22;8192;53.596;10.166;2024-01-15T13:04:25;2.50;99.90
16172;DHT22;8192;53.596;10.166;2024-01-15T13:06:53;2.50;99.90
16172;DHT22;8192;53.596;10.166;2024-01-15T13:09:22;2.40;99.90
16172;DHT22;8192;53.596;10.166;2024-01-15T13:11:49;2.50;99.90
16172;DHT22;8192;53.596;10.166;2024-01-15T13:14:16;2.40;99.90
16172;DHT22;8192;53.596;10.166;2024-01-15T13:16:42;2.30;99.90
16172;DHT22;8192;53.596;10.166;2024-01-15T13:19:10;2.30;99.90
16172;DHT22;8192;53.596;10.166;2024-01-15T13:21:38;2.20;99.90
16172;DHT22;8192;53.596;10.166;2024-01-15T13:24:06;2.10;99.90
16172;DHT22;8192;53.596;10.166;2024-01-15T13:26:34;2.00;99.90
16172;DHT22;8192;53.596;10.166;2024-01-15T13:29:02;2.10;99.90
16172;DHT22;8192;53.596;10.166;2024-01-15T13:31:29;2.10;99.90
16172;DHT22;8192;53.596;10.166;2024-01-15T13:33:56;2.00;99.90
16172;DHT22;8192;53.596;10.166;2024-01-15T13:36:23;2.10;99.90
16172;DHT22;8192;53.596;10.166;2024-01-15T13:38:50;2.00;99.90
16172;DHT22;8192;53.596;10.166;2024-01-15T13:41:18;2.00;99.90
16172;DHT22;8192;53.596;10.166;2024-01-15T13:43:48;2.10;99.90
16172;DHT22;8192;53.596;10.166;2024-01-15T13:46:16;2.00;99.90
16172;DHT22;8192;53.596;10.166;2024-01-15T13:48:43;1.90;99.90
16172;DHT22;8192;53.596;10.166;2024-01-15T13:51:10;1.80;99.90
16172;DHT22;8192;53.596;10.166;2024-01-15T13:53:37;1.80;99.90
16172;DHT22;8192;53.596;10.166;2024-01-15T13:56:05;1.80;99.90
16172;DHT22;8192;53.596;10.166;2024-01-15T13:58:33;1.70;99.90
16172;DHT22;8192;53.596;10.166;2024-01-15T14:01:01;1.80;99.90
16172;DHT22;8192;53.596;10.166;2024-01-15T14:03:30;1.80;99.90
16172;DHT22;8192;53.596;10.166;2024-01-15T14:05:57;1.80;99.90
16172;DHT22;8192;53.596;10.166;2024-01-15T14:08:24;1.70;99.90
16172;DHT22;8192;53.596;10.166;2024-01-15T14:10:51;1.70;99.90
16172;DHT22;8192;53.596;10.166;2024-01-15T14:13:18;1.60;99.90
16172;DHT22;8192;53.596;10.166;2024-01-15T14:15:45;1.60;99.90
16172;DHT22;8192;53.596;10.166;2024-01-15T14:18:16;1.70;99.90
16172;DHT22;8192;53.596;10.166;2024-01-15T14:20:43;1.60;99.90
16172;DHT22;8192;53.596;10.166;2024-01-15T14:23:10;1.70;99.90
16172;DHT22;8192;53.596;10.166;2024-01-15T14:25:37;1.70;99.90
16172;DHT22;8192;53.596;10.166;2024-01-15T14:28:05;1.70;99.90
16172;DHT22;8192;53.596;10.166;2024-01-15T14:30:32;1.60;99.90
16172;DHT22;8192;53.596;10.166;2024-01-15T14:32:59;1.50;99.90
16172;DHT22;8192;53.596;10.166;2024-01-15T14:35:27;1.50;99.90
16172;DHT22;8192;53.596;10.166;2024-01-15T14:37:54;1.50;99.90
16172;DHT22;8192;53.596;10.166;2024-01-15T14:40:23;1.50;99.90
16172;DHT22;8192;53.596;10.166;2024-01-15T14:42:49;1.40;99.90
16172;DHT22;8192;53.596;10.166;2024-01-15T14:45:17;1.30;99.90
16172;DHT22;8192;53.596;10.166;2024-01-15T14:47:44;1.30;99.90
16172;DHT22;8192;53.596;10.166;2024-01-15T14:50:11;1.20;99.90
16172;DHT22;8192;53.596;10.166;2024-01-15T14:52:39;1.20;99.90
16172;DHT22;8192;53.596;10.166;2024-01-15T14:55:08;1.20;99.90
16172;DHT22;8192;53.596;10.166;2024-01-15T14:57:35;1.10;99.90
16172;DHT22;8192;53.596;10.166;2024-01-15T15:00:03;1.10;99.90
16172;DHT22;8192;53.596;10.166;2024-01-15T15:02:32;0.90;99.90
16172;DHT22;8192;53.596;10.166;2024-01-15T15:05:00;1.00;99.90
16172;DHT22;8192;53.596;10.166;2024-01-15T15:07:27;1.00;99.90
16172;DHT22;8192;53.596;10.166;2024-01-15T15:09:55;1.00;99.90
16172;DHT22;8192;53.596;10.166;2024-01-15T15:12:22;1.00;99.90
16172;DHT22;8192;53.596;10.166;2024-01-15T15:14:49;0.90;99.90
16172;DHT22;8192;53.596;10.166;2024-01-15T15:17:16;1.00;99.90
16172;DHT22;8192;53.596;10.166;2024-01-15T15:19:43;0.90;99.90
16172;DHT22;8192;53.596;10.166;2024-01-15T15:22:10;0.90;99.90
16172;DHT22;8192;53.596;10.166;2024-01-15T15:24:37;0.70;99.90
16172;DHT22;8192;53.596;10.166;2024-01-15T15:30:28;0.60;99.90
16172;DHT22;8192;53.596;10.166;2024-01-15T15:36:16;0.50;99.90
16172;DHT22;8192;53.596;10.166;2024-01-15T15:38:44;0.40;99.90
16172;DHT22;8192;53.596;10.166;2024-01-15T15:41:11;0.40;99.90
16172;DHT22;8192;53.596;10.166;2024-01-15T15:43:38;0.40;99.90
16172;DHT22;8192;53.596;10.166;2024-01-15T15:46:07;0.40;99.90
16172;DHT22;8192;53.596;10.166;2024-01-15T15:48:34;0.30;99.90
16172;DHT22;8192;53.596;10.166;2024-01-15T15:51:01;0.20;99.90
16172;DHT22;8192;53.596;10.166;2024-01-15T15:53:28;0.20;99.90
16172;DHT22;8192;53.596;10.166;2024-01-15T15:55:56;0.20;99.90
16172;DHT22;8192;53.596;10.166;2024-01-15T15:58:24;0.20;99.90
16172;DHT22;8192;53.596;10.166;2024-01-15T16:00:51;0.20;99.90